createdAt,value
2023-03-11T00:02:15.805Z,2.50
2023-03-11T00:04:43.147Z,2.50
2023-03-11T00:07:10.979Z,2.50
2023-03-11T00:09:37.968Z,2.60
2023-03-11T00:12:05.162Z,2.50
2023-03-11T00:14:31.720Z,2.50
2023-03-11T00:16:58.291Z,2.50
2023-03-11T00:19:24.893Z,2.50
2023-03-11T00:21:51.593Z,2.50
2023-03-11T00:24:19.055Z,2.50
2023-03-11T00:26:45.650Z,2.50
2023-03-11T00:29:12.358Z,2.50
2023-03-11T00:31:38.964Z,2.50
2023-03-11T00:34:05.500Z,2.50
2023-03-11T00:36:33.806Z,2.50
2023-03-11T00:39:02.271Z,2.50
2023-03-11T00:41:29.330Z,2.40
2023-03-11T00:43:55.987Z,2.40
2023-03-11T00:46:22.598Z,2.40
2023-03-11T00:48:51.054Z,2.30
2023-03-11T00:51:18.158Z,2.30
2023-03-11T00:53:44.872Z,2.30
2023-03-11T00:56:13.464Z,2.30
2023-03-11T00:58:41.152Z,2.20
2023-03-11T01:01:13.880Z,2.20
2023-03-11T01:03:40.856Z,2.20
2023-03-11T01:06:08.239Z,2.20
2023-03-11T01:08:35.362Z,2.20
2023-03-11T01:11:04.088Z,2.20
2023-03-11T01:13:31.152Z,2.20
2023-03-11T01:15:58.427Z,2.20
2023-03-11T01:18:26.805Z,2.20
2023-03-11T01:20:54.017Z,2.30
2023-03-11T01:23:20.836Z,2.30
2023-03-11T01:25:47.533Z,2.30
2023-03-11T01:28:14.235Z,2.30
2023-03-11T01:30:41.946Z,2.30
2023-03-11T01:33:13.315Z,2.30
2023-03-11T01:35:40.072Z,2.30
2023-03-11T01:38:06.719Z,2.30
2023-03-11T01:40:42.309Z,2.30
2023-03-11T01:43:43.036Z,2.30
2023-03-11T01:46:24.259Z,2.30
2023-03-11T01:48:53.779Z,2.30
2023-03-11T01:51:31.495Z,2.30
2023-03-11T01:54:00.997Z,2.30
2023-03-11T01:56:27.937Z,2.30
2023-03-11T01:58:55.488Z,2.20
2023-03-11T02:01:22.640Z,2.20
2023-03-11T02:03:49.866Z,2.10
2023-03-11T02:06:20.986Z,2.10
2023-03-11T02:08:49.289Z,2.10
2023-03-11T02:11:27.621Z,2.10
2023-03-11T02:13:59.070Z,2.10
2023-03-11T02:16:25.934Z,2.10
2023-03-11T02:18:52.824Z,2.20
2023-03-11T02:21:32.741Z,2.20
2023-03-11T02:24:16.798Z,2.20
2023-03-11T02:27:06.396Z,2.30
2023-03-11T02:29:33.999Z,2.30
2023-03-11T02:32:06.621Z,2.30
2023-03-11T02:34:35.732Z,2.30
2023-03-11T02:37:06.107Z,2.20
2023-03-11T02:39:33.925Z,2.20
2023-03-11T02:42:04.942Z,2.10
2023-03-11T02:44:32.004Z,2.00
2023-03-11T02:46:59.440Z,2.00
2023-03-11T02:49:26.237Z,1.90
2023-03-11T02:51:52.968Z,1.90
2023-03-11T02:54:19.588Z,1.80
2023-03-11T02:56:46.124Z,1.80
2023-03-11T02:59:12.825Z,1.80
2023-03-11T03:01:39.481Z,1.70
2023-03-11T03:04:06.219Z,1.70
2023-03-11T03:06:32.908Z,1.70
2023-03-11T03:08:59.585Z,1.70
2023-03-11T03:11:26.199Z,1.70
2023-03-11T03:13:52.809Z,1.70
2023-03-11T03:16:19.473Z,1.70
2023-03-11T03:18:46.074Z,1.70
2023-03-11T03:21:12.612Z,1.70
2023-03-11T03:23:39.248Z,1.70
2023-03-11T03:26:06.447Z,1.70
2023-03-11T03:28:33.418Z,1.70
2023-03-11T03:31:08.129Z,1.70
2023-03-11T03:33:34.924Z,1.70
2023-03-11T03:36:05.528Z,1.70
2023-03-11T03:38:32.133Z,1.70
2023-03-11T03:40:58.787Z,1.70
2023-03-11T03:43:25.432Z,1.70
2023-03-11T03:45:59.330Z,1.70
2023-03-11T03:48:26.601Z,1.70
2023-03-11T03:50:53.166Z,1.70
2023-03-11T03:53:19.981Z,1.70
2023-03-11T03:55:46.890Z,1.70
2023-03-11T03:58:13.555Z,1.70
2023-03-11T04:00:40.332Z,1.80
2023-03-11T04:03:07.246Z,1.80
2023-03-11T04:05:34.040Z,1.80
2023-03-11T04:08:00.743Z,1.80
2023-03-11T04:10:27.682Z,1.80
2023-03-11T04:12:54.288Z,1.80
2023-03-11T04:15:20.857Z,1.80
2023-03-11T04:17:47.399Z,1.80
2023-03-11T04:20:14.005Z,1.80
2023-03-11T04:22:40.592Z,1.80
2023-03-11T04:25:07.787Z,1.80
2023-03-11T04:27:34.375Z,1.80
2023-03-11T04:30:00.997Z,1.90
2023-03-11T04:32:27.818Z,1.90
2023-03-11T04:34:54.363Z,1.90
2023-03-11T04:37:20.993Z,2.00
2023-03-11T04:39:47.718Z,2.00
2023-03-11T04:42:15.146Z,2.10
2023-03-11T04:44:41.783Z,2.10
2023-03-11T04:47:08.420Z,2.10
2023-03-11T04:49:35.071Z,2.20
2023-03-11T04:52:01.820Z,2.10
2023-03-11T04:54:28.750Z,2.10
2023-03-11T04:56:55.279Z,2.10
2023-03-11T04:59:21.936Z,2.10
2023-03-11T05:01:48.752Z,2.10
2023-03-11T05:04:15.452Z,2.10
2023-03-11T05:06:42.113Z,2.10
2023-03-11T05:09:08.812Z,2.00
2023-03-11T05:11:35.967Z,2.00
2023-03-11T05:14:02.525Z,2.00
2023-03-11T05:16:29.110Z,2.00
2023-03-11T05:18:55.732Z,2.00
2023-03-11T05:21:22.876Z,2.00
2023-03-11T05:23:49.557Z,2.00
2023-03-11T05:26:16.161Z,2.00
2023-03-11T05:28:42.766Z,2.00
2023-03-11T05:31:12.541Z,2.10
2023-03-11T05:33:39.424Z,2.00
2023-03-11T05:36:08.524Z,2.00
2023-03-11T05:38:36.704Z,2.00
2023-03-11T05:41:03.595Z,2.10
2023-03-11T05:43:30.176Z,2.10
2023-03-11T05:45:56.741Z,2.10
2023-03-11T05:48:23.377Z,2.10
2023-03-11T05:50:49.968Z,2.10
2023-03-11T05:53:16.515Z,2.10
2023-03-11T05:55:43.060Z,2.20
2023-03-11T05:58:09.761Z,2.10
2023-03-11T06:00:36.885Z,2.10
2023-03-11T06:03:03.529Z,2.10
2023-03-11T06:05:30.189Z,2.10
2023-03-11T06:07:56.760Z,2.00
2023-03-11T06:10:23.452Z,2.10
2023-03-11T06:12:50.051Z,2.00
2023-03-11T06:15:16.693Z,2.10
2023-03-11T06:17:43.255Z,2.10
2023-03-11T06:20:10.557Z,2.10
2023-03-11T06:22:39.960Z,2.10
2023-03-11T06:25:07.836Z,2.20
2023-03-11T06:27:34.422Z,2.20
2023-03-11T06:30:01.180Z,2.20
2023-03-11T06:32:29.631Z,2.30
2023-03-11T06:34:56.361Z,2.30
2023-03-11T06:37:24.969Z,2.30
2023-03-11T06:39:54.913Z,2.40
2023-03-11T06:42:24.013Z,2.50
2023-03-11T06:44:50.623Z,2.50
2023-03-11T06:47:17.194Z,2.50
2023-03-11T06:49:43.950Z,2.60
2023-03-11T06:52:10.541Z,2.60
2023-03-11T06:54:37.411Z,2.70
2023-03-11T06:57:07.782Z,2.70
2023-03-11T06:59:34.658Z,2.80
2023-03-11T07:02:02.388Z,2.90
2023-03-11T07:04:29.279Z,2.90
2023-03-11T07:06:56.202Z,3.00
2023-03-11T07:09:25.088Z,3.10
2023-03-11T07:11:52.498Z,3.20
2023-03-11T07:14:19.639Z,3.30
2023-03-11T07:16:46.328Z,3.30
2023-03-11T07:19:14.321Z,3.40
2023-03-11T07:21:41.287Z,3.80
2023-03-11T07:24:07.875Z,4.40
2023-03-11T07:26:35.710Z,4.90
2023-03-11T07:29:02.376Z,5.30
2023-03-11T07:31:34.588Z,5.70
2023-03-11T07:34:04.390Z,6.50
2023-03-11T07:36:31.441Z,7.20
2023-03-11T07:39:04.718Z,7.70
2023-03-11T07:41:35.565Z,8.90
2023-03-11T07:44:03.745Z,10.30
2023-03-11T07:46:30.970Z,11.00
2023-03-11T07:48:57.609Z,11.80
2023-03-11T07:51:26.957Z,12.40
2023-03-11T07:53:55.912Z,13.20
2023-03-11T07:56:24.526Z,13.10
2023-03-11T07:58:52.460Z,12.50
2023-03-11T08:01:21.783Z,11.50
2023-03-11T08:03:49.894Z,11.00
2023-03-11T08:06:21.919Z,10.50
2023-03-11T08:08:49.540Z,10.50
2023-03-11T08:11:17.207Z,10.80
2023-03-11T08:13:45.213Z,11.00
2023-03-11T08:16:14.775Z,11.20
2023-03-11T08:18:42.134Z,11.80
2023-03-11T08:21:12.313Z,12.60
2023-03-11T08:23:38.884Z,13.40
2023-03-11T08:26:07.641Z,14.30
2023-03-11T08:28:35.104Z,15.10
2023-03-11T08:31:02.386Z,16.00
2023-03-11T08:33:29.143Z,16.90
2023-03-11T08:35:55.852Z,17.30
2023-03-11T08:38:22.617Z,18.20
2023-03-11T08:40:49.245Z,19.10
2023-03-11T08:43:15.904Z,20.30
2023-03-11T08:45:43.008Z,20.80
2023-03-11T08:48:11.545Z,21.60
2023-03-11T08:50:53.429Z,20.70
2023-03-11T08:53:21.947Z,19.70
2023-03-11T08:55:49.824Z,19.80
2023-03-11T08:58:16.498Z,18.60
2023-03-11T09:00:43.072Z,16.70
2023-03-11T09:03:09.983Z,15.30
2023-03-11T09:05:37.122Z,14.50
2023-03-11T09:08:05.694Z,15.00
2023-03-11T09:10:32.837Z,16.20
2023-03-11T09:12:59.463Z,16.80
2023-03-11T09:15:26.109Z,18.70
2023-03-11T09:17:53.086Z,20.30
2023-03-11T09:20:20.240Z,21.60
2023-03-11T09:22:47.434Z,22.60
2023-03-11T09:25:14.558Z,21.90
2023-03-11T09:27:41.356Z,21.00
2023-03-11T09:30:09.680Z,21.20
2023-03-11T09:32:37.018Z,21.50
2023-03-11T09:35:04.557Z,22.50
2023-03-11T09:37:31.336Z,23.80
2023-03-11T09:39:58.294Z,24.80
2023-03-11T09:42:40.969Z,25.30
2023-03-11T09:45:21.083Z,24.50
2023-03-11T09:48:04.092Z,24.10
2023-03-11T09:50:48.746Z,25.20
2023-03-11T09:53:30.281Z,25.70
2023-03-11T09:56:01.563Z,26.50
2023-03-11T09:58:41.632Z,26.90
2023-03-11T10:01:20.915Z,25.80
2023-03-11T10:03:48.355Z,23.10
2023-03-11T10:06:21.534Z,20.30
2023-03-11T10:09:07.004Z,18.60
2023-03-11T10:12:04.642Z,18.00
2023-03-11T10:14:51.969Z,19.00
2023-03-11T10:17:39.849Z,21.00
2023-03-11T10:20:09.292Z,23.10
2023-03-11T10:22:46.866Z,24.60
2023-03-11T10:25:28.092Z,25.50
2023-03-11T10:28:10.339Z,25.60
2023-03-11T10:30:44.335Z,26.70
2023-03-11T10:33:41.642Z,26.40
2023-03-11T10:36:14.892Z,25.60
2023-03-11T10:38:46.642Z,22.60
2023-03-11T10:41:23.522Z,20.30
2023-03-11T10:44:02.318Z,18.10
2023-03-11T10:46:29.281Z,16.20
2023-03-11T10:48:56.363Z,14.70
2023-03-11T10:51:35.032Z,13.70
2023-03-11T10:54:03.435Z,13.10
2023-03-11T10:56:33.136Z,12.40
2023-03-11T10:59:01.141Z,11.50
2023-03-11T11:01:31.854Z,11.50
2023-03-11T11:04:01.463Z,11.00
2023-03-11T11:06:36.355Z,10.80
2023-03-11T11:09:14.395Z,10.50
2023-03-11T11:11:41.972Z,10.20
2023-03-11T11:14:10.211Z,10.00
2023-03-11T11:16:37.210Z,10.50
2023-03-11T11:19:05.250Z,10.60
2023-03-11T11:21:48.709Z,10.70
2023-03-11T11:24:29.852Z,10.90
2023-03-11T11:27:17.225Z,10.80
2023-03-11T11:29:44.564Z,10.80
2023-03-11T11:32:24.107Z,10.80
2023-03-11T11:35:19.395Z,10.50
2023-03-11T11:37:51.832Z,10.30
2023-03-11T11:40:32.214Z,9.90
2023-03-11T11:43:05.921Z,9.50
2023-03-11T11:45:42.597Z,9.30
2023-03-11T11:48:21.281Z,8.90
2023-03-11T11:51:01.122Z,8.80
2023-03-11T11:53:47.028Z,8.70
2023-03-11T11:56:14.104Z,8.60
2023-03-11T11:58:41.613Z,8.40
2023-03-11T12:01:27.868Z,8.30
2023-03-11T12:04:12.710Z,8.00
2023-03-11T12:07:03.716Z,8.10
2023-03-11T12:09:38.544Z,8.20
2023-03-11T12:12:29.824Z,8.30
2023-03-11T12:15:07.398Z,8.40
2023-03-11T12:17:37.964Z,8.50
2023-03-11T12:20:32.863Z,8.60
2023-03-11T12:23:02.438Z,8.80
2023-03-11T12:25:44.335Z,8.90
2023-03-11T12:28:49.769Z,8.80
2023-03-11T12:31:16.881Z,8.70
2023-03-11T12:33:47.170Z,8.50
2023-03-11T12:36:34.194Z,8.40
2023-03-11T12:39:05.730Z,8.30
2023-03-11T12:41:39.840Z,8.40
2023-03-11T12:44:22.428Z,8.60
2023-03-11T12:46:57.939Z,8.60
2023-03-11T12:49:37.783Z,8.60
2023-03-11T12:52:16.047Z,8.80
2023-03-11T12:55:20.889Z,9.20
2023-03-11T12:57:47.422Z,9.60
2023-03-11T13:00:25.930Z,9.70
2023-03-11T13:03:17.602Z,9.70
2023-03-11T13:05:58.294Z,9.60
2023-03-11T13:08:35.186Z,9.50
2023-03-11T13:11:01.797Z,9.30
2023-03-11T13:13:31.411Z,9.00
2023-03-11T13:15:58.756Z,8.80
2023-03-11T13:18:30.387Z,8.70
2023-03-11T13:20:59.218Z,8.50
2023-03-11T13:23:40.225Z,8.50
2023-03-11T13:26:09.781Z,8.50
2023-03-11T13:28:44.313Z,8.40
2023-03-11T13:31:37.372Z,8.30
2023-03-11T13:34:40.695Z,8.00
2023-03-11T13:37:25.196Z,7.70
2023-03-11T13:40:22.800Z,7.50
2023-03-11T13:42:51.649Z,7.20
2023-03-11T13:45:31.890Z,7.10
2023-03-11T13:48:16.358Z,7.10
2023-03-11T13:50:50.901Z,7.10
2023-03-11T13:53:25.706Z,7.00
2023-03-11T13:55:52.522Z,7.50
2023-03-11T13:58:27.745Z,9.40
2023-03-11T14:00:59.994Z,10.20
2023-03-11T14:03:29.447Z,10.00
2023-03-11T14:06:00.648Z,9.70
2023-03-11T14:08:32.468Z,9.40
2023-03-11T14:11:12.454Z,9.10
2023-03-11T14:13:47.297Z,8.90
2023-03-11T14:16:21.237Z,8.60
2023-03-11T14:19:09.210Z,8.40
2023-03-11T14:21:36.108Z,8.30
2023-03-11T14:24:03.763Z,8.40
2023-03-11T14:26:34.817Z,8.20
2023-03-11T14:29:08.666Z,8.10
2023-03-11T14:31:37.944Z,8.00
2023-03-11T14:34:04.773Z,7.80
2023-03-11T14:36:40.199Z,7.70
2023-03-11T14:39:21.609Z,7.50
2023-03-11T14:41:49.308Z,7.50
2023-03-11T14:44:16.734Z,7.40
2023-03-11T14:46:45.352Z,7.40
2023-03-11T14:49:19.232Z,7.50
2023-03-11T14:51:47.155Z,7.40
2023-03-11T14:54:24.336Z,7.40
2023-03-11T14:57:05.893Z,7.30
2023-03-11T14:59:34.942Z,7.40
2023-03-11T15:02:27.479Z,7.50
2023-03-11T15:04:55.920Z,7.50
2023-03-11T15:07:23.049Z,7.60
2023-03-11T15:09:49.908Z,7.60
2023-03-11T15:12:39.625Z,7.70
2023-03-11T15:15:29.035Z,7.80
2023-03-11T15:17:57.727Z,7.80
2023-03-11T15:20:36.596Z,7.90
2023-03-11T15:23:05.956Z,7.80
2023-03-11T15:25:34.296Z,7.90
2023-03-11T15:28:25.198Z,7.80
2023-03-11T15:31:12.425Z,7.70
2023-03-11T15:33:39.930Z,7.70
2023-03-11T15:36:26.196Z,7.70
2023-03-11T15:39:30.802Z,7.60
2023-03-11T15:42:01.853Z,7.50
2023-03-11T15:44:41.463Z,7.40
2023-03-11T15:47:16.612Z,7.50
2023-03-11T15:49:43.273Z,7.50
2023-03-11T15:52:10.431Z,7.50
2023-03-11T15:54:37.281Z,7.30
2023-03-11T15:57:07.601Z,7.10
2023-03-11T15:59:36.225Z,7.00
2023-03-11T16:02:03.226Z,6.90
2023-03-11T16:04:29.970Z,6.70
2023-03-11T16:07:07.393Z,6.60
2023-03-11T16:09:35.108Z,6.40
2023-03-11T16:12:02.352Z,6.30
2023-03-11T16:14:28.975Z,6.20
2023-03-11T16:16:55.547Z,6.10
2023-03-11T16:19:22.113Z,5.90
2023-03-11T16:21:50.231Z,5.80
2023-03-11T16:24:22.205Z,5.70
2023-03-11T16:26:51.464Z,5.60
2023-03-11T16:29:19.821Z,5.50
2023-03-11T16:31:46.833Z,5.40
2023-03-11T16:34:13.469Z,5.30
2023-03-11T16:36:40.189Z,5.20
2023-03-11T16:39:06.853Z,5.10
2023-03-11T16:41:45.080Z,5.10
2023-03-11T16:44:11.861Z,5.00
2023-03-11T16:46:38.799Z,5.00
2023-03-11T16:49:05.633Z,4.90
2023-03-11T16:51:32.969Z,4.80
2023-03-11T16:53:59.884Z,4.80
2023-03-11T16:56:26.632Z,4.70
2023-03-11T16:58:53.235Z,4.70
2023-03-11T17:01:21.534Z,4.70
2023-03-11T17:03:50.889Z,4.60
2023-03-11T17:06:17.628Z,4.60
2023-03-11T17:08:49.153Z,4.50
2023-03-11T17:11:21.080Z,4.50
2023-03-11T17:13:47.931Z,4.40
2023-03-11T17:16:14.668Z,4.40
2023-03-11T17:18:41.588Z,4.30
2023-03-11T17:21:11.089Z,4.30
2023-03-11T17:23:37.691Z,4.20
2023-03-11T17:26:16.330Z,4.10
2023-03-11T17:28:43.639Z,4.00
2023-03-11T17:31:15.104Z,4.00
2023-03-11T17:33:42.420Z,3.90
2023-03-11T17:36:11.503Z,3.80
2023-03-11T17:38:38.158Z,3.80
2023-03-11T17:41:10.136Z,3.70
2023-03-11T17:43:36.786Z,3.70
2023-03-11T17:46:08.066Z,3.60
2023-03-11T17:48:34.767Z,3.50
2023-03-11T17:51:06.261Z,3.50
2023-03-11T17:53:33.407Z,3.40
2023-03-11T17:56:00.023Z,3.40
2023-03-11T17:58:26.596Z,3.30
2023-03-11T18:00:53.191Z,3.20
2023-03-11T18:03:19.811Z,3.20
2023-03-11T18:05:57.460Z,3.10
2023-03-11T18:08:24.123Z,3.00
2023-03-11T18:10:52.150Z,3.00
2023-03-11T18:13:19.849Z,2.90
2023-03-11T18:15:46.468Z,2.90
2023-03-11T18:18:13.327Z,2.80
2023-03-11T18:20:40.719Z,2.80
2023-03-11T18:23:07.495Z,2.70
2023-03-11T18:25:34.196Z,2.80
2023-03-11T18:28:00.793Z,2.70
2023-03-11T18:30:27.488Z,2.70
2023-03-11T18:32:54.151Z,2.60
2023-03-11T18:35:22.162Z,2.50
2023-03-11T18:37:48.808Z,2.50
2023-03-11T18:40:15.564Z,2.50
2023-03-11T18:42:42.172Z,2.50
2023-03-11T18:45:12.000Z,2.40
2023-03-11T18:47:38.572Z,2.40
2023-03-11T18:50:06.105Z,2.40
2023-03-11T18:52:32.697Z,2.30
2023-03-11T18:54:59.300Z,2.30
2023-03-11T18:57:26.229Z,2.20
2023-03-11T18:59:52.822Z,2.10
2023-03-11T19:02:19.486Z,2.10
2023-03-11T19:04:46.077Z,2.10
2023-03-11T19:07:12.830Z,2.00
2023-03-11T19:09:39.431Z,2.00
2023-03-11T19:12:06.224Z,1.90
2023-03-11T19:14:32.984Z,1.90
2023-03-11T19:16:59.694Z,1.80
2023-03-11T19:19:26.300Z,1.70
2023-03-11T19:21:52.869Z,1.60
2023-03-11T19:24:19.413Z,1.60
2023-03-11T19:26:46.384Z,1.50
2023-03-11T19:29:14.071Z,1.50
2023-03-11T19:31:41.092Z,1.40
2023-03-11T19:34:07.732Z,1.40
2023-03-11T19:36:34.738Z,1.30
2023-03-11T19:39:01.310Z,1.30
2023-03-11T19:41:28.102Z,1.30
2023-03-11T19:43:54.678Z,1.20
2023-03-11T19:46:22.255Z,1.20
2023-03-11T19:48:49.086Z,1.20
2023-03-11T19:51:17.119Z,1.10
2023-03-11T19:53:43.738Z,1.10
2023-03-11T19:56:10.714Z,1.10
2023-03-11T19:58:37.293Z,1.00
2023-03-11T20:01:04.118Z,1.00
2023-03-11T20:03:30.786Z,1.00
2023-03-11T20:06:04.546Z,1.00
2023-03-11T20:08:36.272Z,0.90
2023-03-11T20:11:05.215Z,0.90
2023-03-11T20:13:34.376Z,0.90
2023-03-11T20:16:09.615Z,0.90
2023-03-11T20:18:36.542Z,0.90
2023-03-11T20:21:11.913Z,0.80
2023-03-11T20:23:39.608Z,0.80
2023-03-11T20:26:08.792Z,0.80
2023-03-11T20:28:35.426Z,0.70
2023-03-11T20:31:28.244Z,0.70
2023-03-11T20:33:55.787Z,0.70
2023-03-11T20:36:26.141Z,0.70
2023-03-11T20:38:54.581Z,0.70
2023-03-11T20:41:23.239Z,0.60
2023-03-11T20:43:54.953Z,0.60
2023-03-11T20:46:22.387Z,0.60
2023-03-11T20:48:49.186Z,0.50
2023-03-11T20:51:20.268Z,0.50
2023-03-11T20:53:47.619Z,0.50
2023-03-11T20:56:18.308Z,0.40
2023-03-11T20:58:46.005Z,0.40
2023-03-11T21:01:15.639Z,0.40
2023-03-11T21:03:43.106Z,0.40
2023-03-11T21:06:18.732Z,0.30
2023-03-11T21:08:46.109Z,0.30
2023-03-11T21:11:13.308Z,0.30
2023-03-11T21:13:40.205Z,0.30
2023-03-11T21:16:07.858Z,0.30
2023-03-11T21:18:34.688Z,0.30
2023-03-11T21:21:01.506Z,0.30
2023-03-11T21:23:28.133Z,0.20
2023-03-11T21:26:02.822Z,0.20
2023-03-11T21:28:29.548Z,0.20
2023-03-11T21:31:01.634Z,0.10
2023-03-11T21:33:28.435Z,0.20
2023-03-11T21:35:57.044Z,0.10
2023-03-11T21:38:24.720Z,0.10
2023-03-11T21:40:52.304Z,0.10
2023-03-11T21:43:20.809Z,0.00
2023-03-11T21:45:47.568Z,0.00
2023-03-11T21:48:14.503Z,0.00
2023-03-11T21:50:41.965Z,0.00
2023-03-11T21:53:08.667Z,0.00
2023-03-11T21:55:35.342Z,-0.10
2023-03-11T21:58:01.891Z,-0.10
2023-03-11T22:00:28.503Z,-0.10
2023-03-11T22:02:55.202Z,-0.10
2023-03-11T22:05:22.036Z,-0.20
2023-03-11T22:07:48.675Z,-0.20
2023-03-11T22:10:15.783Z,-0.20
2023-03-11T22:12:42.450Z,-0.20
2023-03-11T22:15:09.504Z,-0.20
2023-03-11T22:17:36.714Z,-0.20
2023-03-11T22:20:05.654Z,-0.20
2023-03-11T22:22:33.023Z,-0.30
2023-03-11T22:24:59.603Z,-0.30
2023-03-11T22:27:26.250Z,-0.30
2023-03-11T22:29:52.852Z,-0.30
2023-03-11T22:32:19.394Z,-0.30
2023-03-11T22:34:45.962Z,-0.30
2023-03-11T22:37:12.630Z,-0.30
2023-03-11T22:39:39.226Z,-0.30
2023-03-11T22:42:06.270Z,-0.40
2023-03-11T22:44:33.321Z,-0.40
2023-03-11T22:46:59.851Z,-0.40
2023-03-11T22:49:26.448Z,-0.30
2023-03-11T22:51:53.133Z,-0.40
2023-03-11T22:54:19.705Z,-0.40
2023-03-11T22:56:46.332Z,-0.40
2023-03-11T22:59:12.952Z,-0.40
2023-03-11T23:01:39.541Z,-0.40
2023-03-11T23:04:06.251Z,-0.50
2023-03-11T23:06:32.876Z,-0.50
2023-03-11T23:08:59.564Z,-0.40
2023-03-11T23:11:26.134Z,-0.40
2023-03-11T23:13:52.671Z,-0.30
2023-03-11T23:16:21.821Z,-0.30
2023-03-11T23:18:49.942Z,-0.20
2023-03-11T23:21:26.510Z,-0.10
2023-03-11T23:23:54.044Z,0.00
2023-03-11T23:26:21.937Z,0.00
2023-03-11T23:28:51.151Z,0.10
2023-03-11T23:31:18.376Z,0.20
2023-03-11T23:33:45.638Z,0.20
2023-03-11T23:36:15.400Z,0.10
2023-03-11T23:38:42.682Z,0.10
2023-03-11T23:41:12.848Z,0.10
2023-03-11T23:43:40.270Z,0.10
2023-03-11T23:46:07.946Z,0.10
2023-03-11T23:48:36.014Z,0.00
2023-03-11T23:51:04.380Z,-0.10
2023-03-11T23:53:32.578Z,-0.10
2023-03-11T23:55:59.333Z,-0.10
2023-03-11T23:58:26.068Z,-0.10
